Time;durP1;ratioP1;P1;durP2;ratioP2;P2;SDS_P1;SDS_P2;PMS_P1;PMS_P2;Temp;Humidity;BMP_temperature;BMP_pressure;BME280_temperature;BME280_humidity;BME280_pressure;Samples;Min_cycle;Max_cycle;Signal;HPM_P1;HPM_P2
2021/09/04 00:02:11;;;;;;;4.88;4.38;;;;;;;-142.25;100.00;58004.16;5052241;28;20033;-57
2021/09/04 00:04:39;;;;;;;6.28;4.78;;;;;;;-142.25;100.00;58004.16;5069116;28;20020;-56
2021/09/04 00:07:05;;;;;;;6.18;5.30;;;;;;;-142.25;100.00;58004.16;5058398;28;20060;-56
2021/09/04 00:09:31;;;;;;;6.65;4.70;;;;;;;-142.25;100.00;58004.16;5056743;28;20338;-58
2021/09/04 00:11:56;;;;;;;5.95;5.03;;;;;;;-142.25;100.00;58004.16;5057866;28;20046;-58
2021/09/04 00:14:21;;;;;;;6.15;5.05;;;;;;;-142.25;100.00;58004.16;5053081;28;20526;-58
2021/09/04 00:16:47;;;;;;;6.65;4.82;;;;;;;-142.25;100.00;58004.16;5052824;28;20025;-58
2021/09/04 00:19:12;;;;;;;5.82;4.95;;;;;;;-142.25;100.00;58004.16;5054786;28;20394;-58
2021/09/04 00:21:38;;;;;;;4.97;4.32;;;;;;;-142.25;100.00;58004.16;5054577;28;20029;-57
2021/09/04 00:24:03;;;;;;;5.78;5.22;;;;;;;-142.25;100.00;58004.16;5052681;28;20142;-58
2021/09/04 00:26:29;;;;;;;8.45;6.13;;;;;;;-142.25;100.00;58004.16;5056561;28;20037;-58
2021/09/04 00:28:54;;;;;;;5.95;5.22;;;;;;;-142.25;100.00;58004.16;5052556;28;20024;-57
2021/09/04 00:31:20;;;;;;;10.43;6.32;;;;;;;-142.25;100.00;58004.16;5055611;28;20037;-56
2021/09/04 00:33:45;;;;;;;7.97;4.95;;;;;;;-142.25;100.00;58004.16;5055186;28;20106;-59
2021/09/04 00:36:10;;;;;;;9.23;5.35;;;;;;;-142.25;100.00;58004.16;5057241;28;20503;-57
2021/09/04 00:38:36;;;;;;;6.07;4.80;;;;;;;-142.25;100.00;58004.16;5051736;28;20040;-57
2021/09/04 00:41:01;;;;;;;6.72;4.72;;;;;;;-142.25;100.00;58004.16;5055131;28;20177;-56
2021/09/04 00:43:26;;;;;;;5.40;4.82;;;;;;;-142.25;100.00;58004.16;5054078;28;20057;-60
2021/09/04 00:45:52;;;;;;;6.43;5.45;;;;;;;-142.25;100.00;58004.16;5052879;28;20039;-56
2021/09/04 00:48:17;;;;;;;6.57;4.85;;;;;;;-142.25;100.00;58004.16;5054155;28;20495;-59
2021/09/04 00:50:43;;;;;;;6.10;5.50;;;;;;;-142.25;100.00;58004.16;5055709;28;20041;-59
2021/09/04 00:53:08;;;;;;;6.03;4.93;;;;;;;-142.25;100.00;58004.16;5053593;28;20028;-55
2021/09/04 00:55:34;;;;;;;5.18;4.70;;;;;;;-142.25;100.00;58004.16;5053576;28;20040;-59
2021/09/04 00:58:00;;;;;;;6.30;5.05;;;;;;;-142.25;100.00;58004.16;5052231;28;20052;-56
2021/09/04 01:00:25;;;;;;;9.77;5.18;;;;;;;-142.25;100.00;58004.16;5053425;28;20543;-54
2021/09/04 01:02:51;;;;;;;8.80;5.35;;;;;;;-142.25;100.00;58004.16;5064613;23;20059;-55
2021/09/04 01:05:17;;;;;;;6.35;5.57;;;;;;;-142.25;100.00;58004.16;5072475;28;20074;-57
2021/09/04 01:07:42;;;;;;;6.95;5.88;;;;;;;-142.25;100.00;58004.16;5072645;28;20032;-60
2021/09/04 01:10:10;;;;;;;7.18;4.90;;;;;;;-142.25;100.00;58004.16;5072442;28;20034;-58
2021/09/04 01:12:36;;;;;;;6.93;5.05;;;;;;;-142.25;100.00;58004.16;5087338;28;20039;-55
2021/09/04 01:15:03;;;;;;;5.75;4.72;;;;;;;-142.25;100.00;58004.16;5068742;28;20024;-54
2021/09/04 01:17:29;;;;;;;5.22;4.72;;;;;;;-142.25;100.00;58004.16;5071182;28;20036;-57
2021/09/04 01:19:54;;;;;;;7.43;5.47;;;;;;;-142.25;100.00;58004.16;5072889;28;20067;-58
2021/09/04 01:22:19;;;;;;;7.22;5.13;;;;;;;-142.25;100.00;58004.16;5073835;28;20040;-54
2021/09/04 01:24:48;;;;;;;5.70;5.05;;;;;;;-142.25;100.00;58004.16;5070266;28;20043;-55
2021/09/04 01:27:15;;;;;;;6.53;4.93;;;;;;;-142.25;100.00;58004.16;5072983;28;20042;-58
2021/09/04 01:29:41;;;;;;;6.57;5.47;;;;;;;-142.25;100.00;58004.16;5072167;28;20081;-59
2021/09/04 01:32:07;;;;;;;6.45;5.20;;;;;;;-142.25;100.00;58004.16;5075711;28;20031;-55
2021/09/04 01:34:32;;;;;;;7.60;4.88;;;;;;;-142.25;100.00;58004.16;5075437;28;20074;-57
2021/09/04 01:36:58;;;;;;;6.07;4.53;;;;;;;-142.25;100.00;58004.16;5071456;28;20036;-58
2021/09/04 01:39:23;;;;;;;7.00;4.53;;;;;;;-142.25;100.00;58004.16;5073717;28;20028;-54
2021/09/04 01:41:49;;;;;;;6.32;5.00;;;;;;;-142.25;100.00;58004.16;5073126;28;20027;-57
2021/09/04 01:44:15;;;;;;;6.75;5.35;;;;;;;-142.25;100.00;58004.16;5072552;28;20476;-57
2021/09/04 01:46:40;;;;;;;5.18;4.40;;;;;;;-142.25;100.00;58004.16;5071964;28;20110;-58
2021/09/04 01:49:06;;;;;;;6.57;5.38;;;;;;;-142.25;100.00;58004.16;5069908;28;20032;-58
2021/09/04 01:51:32;;;;;;;5.90;5.10;;;;;;;-142.25;100.00;58004.16;5072384;28;20102;-53
2021/09/04 01:53:57;;;;;;;5.90;5.03;;;;;;;-142.25;100.00;58004.16;5074288;28;20032;-56
2021/09/04 01:56:22;;;;;;;6.68;4.50;;;;;;;-142.25;100.00;58004.16;5073267;28;20035;-56
2021/09/04 01:58:48;;;;;;;7.32;5.38;;;;;;;-142.25;100.00;58004.16;5073898;28;20039;-56
2021/09/04 02:01:13;;;;;;;5.00;4.05;;;;;;;-142.25;100.00;58004.16;5072227;28;20059;-55
2021/09/04 02:03:39;;;;;;;6.47;5.18;;;;;;;-142.25;100.00;58004.16;5072771;28;20545;-58
2021/09/04 02:06:05;;;;;;;7.30;4.78;;;;;;;-142.25;100.00;58004.16;5072052;28;20484;-60
2021/09/04 02:08:32;;;;;;;6.75;5.28;;;;;;;-142.25;100.00;58004.16;5072324;28;20068;-56
2021/09/04 02:10:57;;;;;;;6.57;5.00;;;;;;;-142.25;100.00;58004.16;5073821;28;20036;-59
2021/09/04 02:13:23;;;;;;;7.57;5.72;;;;;;;-142.25;100.00;58004.16;5072149;28;20074;-59
2021/09/04 02:15:49;;;;;;;6.47;5.10;;;;;;;-142.25;100.00;58004.16;5070069;28;20686;-57
2021/09/04 02:18:14;;;;;;;5.93;5.15;;;;;;;-142.25;100.00;58004.16;5074521;28;20484;-58
2021/09/04 02:20:39;;;;;;;7.25;4.70;;;;;;;-142.25;100.00;58004.16;5071743;28;20031;-57
2021/09/04 02:23:05;;;;;;;6.50;5.22;;;;;;;-142.25;100.00;58004.16;5072381;28;20061;-59
2021/09/04 02:25:30;;;;;;;6.28;5.07;;;;;;;-142.25;100.00;58004.16;5071999;28;20024;-56
2021/09/04 02:27:56;;;;;;;4.95;4.28;;;;;;;-142.25;100.00;58004.16;5073591;28;20081;-60
2021/09/04 02:30:21;;;;;;;7.38;5.05;;;;;;;-142.25;100.00;58004.16;5073742;28;20032;-56
2021/09/04 02:32:46;;;;;;;5.47;4.70;;;;;;;-142.25;100.00;58004.16;5071086;28;20188;-57
2021/09/04 02:35:12;;;;;;;6.22;4.53;;;;;;;-142.25;100.00;58004.16;5072168;28;20051;-60
2021/09/04 02:37:38;;;;;;;6.22;5.05;;;;;;;-142.25;100.00;58004.16;5072551;28;20044;-58
2021/09/04 02:40:04;;;;;;;6.03;4.72;;;;;;;-142.25;100.00;58004.16;5073523;28;20046;-58
2021/09/04 02:42:30;;;;;;;6.45;4.90;;;;;;;-142.25;100.00;58004.16;5072075;28;20412;-58
2021/09/04 02:44:56;;;;;;;5.47;4.47;;;;;;;-142.25;100.00;58004.16;5072628;28;20434;-58
2021/09/04 02:47:21;;;;;;;7.18;4.95;;;;;;;-142.25;100.00;58004.16;5073283;28;20039;-55
2021/09/04 02:49:47;;;;;;;6.30;4.50;;;;;;;-142.25;100.00;58004.16;5077794;28;20028;-55
2021/09/04 02:52:12;;;;;;;7.30;5.10;;;;;;;-142.25;100.00;58004.16;5077319;28;20202;-59
2021/09/04 02:54:37;;;;;;;5.50;4.55;;;;;;;-142.25;100.00;58004.16;5076604;28;20551;-57
2021/09/04 02:57:03;;;;;;;5.90;4.93;;;;;;;-142.25;100.00;58004.16;5075419;28;20048;-57
2021/09/04 02:59:29;;;;;;;6.68;5.38;;;;;;;-142.25;100.00;58004.16;5075419;28;20632;-58
2021/09/04 03:01:54;;;;;;;6.23;4.50;;;;;;;-142.25;100.00;58004.16;5075348;28;20109;-56
2021/09/04 03:04:20;;;;;;;7.15;5.47;;;;;;;-142.25;100.00;58004.16;5073896;28;20052;-58
2021/09/04 03:06:45;;;;;;;7.13;4.70;;;;;;;-142.25;100.00;58004.16;5073518;28;20038;-56
2021/09/04 03:09:10;;;;;;;6.70;4.57;;;;;;;-142.25;100.00;58004.16;5075484;28;20090;-55
2021/09/04 03:11:36;;;;;;;7.15;5.10;;;;;;;-142.25;100.00;58004.16;5075801;28;20491;-58
2021/09/04 03:14:02;;;;;;;5.85;4.50;;;;;;;-142.25;100.00;58004.16;5074842;28;20492;-57
2021/09/04 03:16:28;;;;;;;12.15;4.75;;;;;;;-142.25;100.00;58004.16;5075509;28;20668;-59
2021/09/04 03:18:53;;;;;;;6.47;4.78;;;;;;;-142.25;100.00;58004.16;5075269;28;20123;-58
2021/09/04 03:21:19;;;;;;;6.85;4.22;;;;;;;-142.25;100.00;58004.16;5074143;28;20489;-58
2021/09/04 03:23:44;;;;;;;6.38;4.97;;;;;;;-142.25;100.00;58004.16;5073880;28;20036;-59
2021/09/04 03:26:10;;;;;;;7.93;4.35;;;;;;;-142.25;100.00;58004.16;5075624;28;20095;-60
2021/09/04 03:28:35;;;;;;;7.20;4.95;;;;;;;-142.25;100.00;58004.16;5075679;28;20438;-59
2021/09/04 03:31:01;;;;;;;5.22;4.68;;;;;;;-142.25;100.00;58004.16;5074635;28;20127;-55
2021/09/04 03:33:26;;;;;;;6.10;5.50;;;;;;;-142.25;100.00;58004.16;5073735;28;20067;-57
2021/09/04 03:35:51;;;;;;;6.15;4.25;;;;;;;-142.25;100.00;58004.16;5076402;28;20043;-57
2021/09/04 03:38:17;;;;;;;8.45;4.75;;;;;;;-142.25;100.00;58004.16;5074465;28;20032;-54
2021/09/04 03:40:42;;;;;;;6.22;4.80;;;;;;;-142.25;100.00;58004.16;5075382;28;20056;-58
2021/09/04 03:43:08;;;;;;;5.93;4.20;;;;;;;-142.25;100.00;58004.16;5074633;28;20066;-59
2021/09/04 03:45:35;;;;;;;5.38;4.40;;;;;;;-142.25;100.00;58004.16;5075022;28;20471;-58
2021/09/04 03:48:00;;;;;;;6.88;4.82;;;;;;;-142.25;100.00;58004.16;5073483;28;20039;-54
2021/09/04 03:50:26;;;;;;;6.32;5.15;;;;;;;-142.25;100.00;58004.16;5080930;28;20028;-59
2021/09/04 03:52:51;;;;;;;5.05;4.55;;;;;;;-142.25;100.00;58004.16;5080753;28;20043;-58
2021/09/04 03:55:17;;;;;;;6.95;5.25;;;;;;;-142.25;100.00;58004.16;5075863;28;20036;-57
2021/09/04 03:57:42;;;;;;;6.47;4.40;;;;;;;-142.25;100.00;58004.16;5073916;28;20409;-59
2021/09/04 04:00:08;;;;;;;5.53;4.43;;;;;;;-142.25;100.00;58004.16;5072062;28;20064;-57
2021/09/04 04:02:33;;;;;;;6.68;4.72;;;;;;;-142.25;100.00;58004.16;5073618;28;20083;-57
2021/09/04 04:04:59;;;;;;;5.85;5.20;;;;;;;-142.25;100.00;58004.16;5073350;28;20412;-55
2021/09/04 04:07:24;;;;;;;5.03;4.32;;;;;;;-142.25;100.00;58004.16;5073472;28;20036;-59
2021/09/04 04:09:50;;;;;;;5.43;4.72;;;;;;;-142.25;100.00;58004.16;5074812;28;20032;-59
2021/09/04 04:12:15;;;;;;;7.50;5.15;;;;;;;-142.25;100.00;58004.16;5071267;28;20028;-58
2021/09/04 04:14:40;;;;;;;6.07;4.72;;;;;;;-142.25;100.00;58004.16;5074201;28;20039;-58
2021/09/04 04:17:06;;;;;;;5.97;4.28;;;;;;;-142.25;100.00;58004.16;5073540;28;20081;-58
2021/09/04 04:19:31;;;;;;;6.30;5.13;;;;;;;-142.25;100.00;58004.16;5075841;28;20085;-58
2021/09/04 04:21:57;;;;;;;6.53;5.18;;;;;;;-142.25;100.00;58004.16;5073988;28;20035;-57
2021/09/04 04:24:22;;;;;;;9.80;6.65;;;;;;;-142.25;100.00;58004.16;5055588;28;20435;-57
2021/09/04 04:26:48;;;;;;;10.35;7.22;;;;;;;-142.25;100.00;58004.16;5072573;28;20093;-57
2021/09/04 04:29:13;;;;;;;7.67;6.00;;;;;;;-142.25;100.00;58004.16;5072532;28;20396;-57
2021/09/04 04:31:39;;;;;;;5.37;4.83;;;;;;;-142.25;100.00;58004.16;5075483;28;20040;-54
2021/09/04 04:34:05;;;;;;;6.63;4.78;;;;;;;-142.25;100.00;58004.16;5073540;28;20518;-56
2021/09/04 04:36:32;;;;;;;6.57;4.90;;;;;;;-142.25;100.00;58004.16;5074104;28;20118;-57
2021/09/04 04:38:58;;;;;;;6.47;4.70;;;;;;;-142.25;100.00;58004.16;5073276;28;20039;-58
2021/09/04 04:41:23;;;;;;;7.72;6.03;;;;;;;-142.25;100.00;58004.16;5071635;28;20044;-57
2021/09/04 04:43:49;;;;;;;6.97;5.33;;;;;;;-142.25;100.00;58004.16;5072772;28;20036;-59
2021/09/04 04:46:14;;;;;;;6.07;4.43;;;;;;;-142.25;100.00;58004.16;5073142;28;20068;-58
2021/09/04 04:48:40;;;;;;;6.43;5.00;;;;;;;-142.25;100.00;58004.16;5074344;28;20028;-56
2021/09/04 04:51:06;;;;;;;6.32;5.50;;;;;;;-142.25;100.00;58004.16;5072393;28;20472;-58
2021/09/04 04:53:31;;;;;;;5.53;5.00;;;;;;;-142.25;100.00;58004.16;5072035;28;20034;-57
2021/09/04 04:55:56;;;;;;;6.72;5.10;;;;;;;-142.25;100.00;58004.16;5072201;28;20043;-56
2021/09/04 04:58:22;;;;;;;6.22;5.10;;;;;;;-142.25;100.00;58004.16;5074405;28;20529;-57
2021/09/04 05:00:48;;;;;;;6.40;5.15;;;;;;;-142.25;100.00;58004.16;5072326;28;20036;-58
2021/09/04 05:03:14;;;;;;;5.82;4.95;;;;;;;-142.25;100.00;58004.16;5072549;28;20101;-55
2021/09/04 05:05:39;;;;;;;5.82;4.65;;;;;;;-142.25;100.00;58004.16;5073133;28;20056;-56
2021/09/04 05:08:05;;;;;;;6.18;5.07;;;;;;;-142.25;100.00;58004.16;5072168;28;20458;-56
2021/09/04 05:10:30;;;;;;;6.40;4.03;;;;;;;-142.25;100.00;58004.16;5072393;28;20032;-58
2021/09/04 05:12:56;;;;;;;7.10;4.70;;;;;;;-142.25;100.00;58004.16;5070464;28;20452;-58
2021/09/04 05:15:21;;;;;;;6.38;5.20;;;;;;;-142.25;100.00;58004.16;5072548;28;20039;-56
2021/09/04 05:17:47;;;;;;;7.22;5.60;;;;;;;-142.25;100.00;58004.16;5057380;28;20131;-57
2021/09/04 05:20:12;;;;;;;13.07;6.47;;;;;;;-142.25;100.00;58004.16;5072989;28;20071;-57
2021/09/04 05:22:40;;;;;;;6.63;5.32;;;;;;;-142.25;100.00;58004.16;5072136;28;20468;-56
2021/09/04 05:25:05;;;;;;;6.13;4.85;;;;;;;-142.25;100.00;58004.16;5073501;28;20094;-58
2021/09/04 05:27:31;;;;;;;6.60;5.07;;;;;;;-142.25;100.00;58004.16;5072906;28;20392;-58
2021/09/04 05:29:56;;;;;;;8.07;5.88;;;;;;;-142.25;100.00;58004.16;5075354;28;20031;-55
2021/09/04 05:32:24;;;;;;;5.82;5.30;;;;;;;-142.25;100.00;58004.16;5069928;28;20036;-58
2021/09/04 05:34:50;;;;;;;6.55;5.50;;;;;;;-142.25;100.00;58004.16;5071369;28;20039;-57
2021/09/04 05:37:17;;;;;;;7.70;5.40;;;;;;;-142.25;100.00;58004.16;5072794;28;20037;-59
2021/09/04 05:39:42;;;;;;;5.57;4.97;;;;;;;-142.25;100.00;58004.16;5073764;28;20051;-57
2021/09/04 05:42:07;;;;;;;7.28;4.95;;;;;;;-142.25;100.00;58004.16;5073708;28;20028;-58
2021/09/04 05:44:33;;;;;;;10.60;4.63;;;;;;;-142.25;100.00;58004.16;5072013;28;20079;-57
2021/09/04 05:46:58;;;;;;;8.98;5.28;;;;;;;-142.25;100.00;58004.16;5072848;28;20033;-56
2021/09/04 05:49:24;;;;;;;9.18;4.78;;;;;;;-142.25;100.00;58004.16;5073083;28;20529;-59
2021/09/04 05:51:49;;;;;;;5.60;4.45;;;;;;;-142.25;100.00;58004.16;5071021;28;20451;-58
2021/09/04 05:54:14;;;;;;;5.22;4.68;;;;;;;-142.25;100.00;58004.16;5071354;28;20032;-59
2021/09/04 05:56:40;;;;;;;5.72;4.20;;;;;;;-142.25;100.00;58004.16;5070534;28;20182;-57
2021/09/04 05:59:05;;;;;;;5.55;4.55;;;;;;;-142.25;100.00;58004.16;5074849;28;20032;-55
2021/09/04 06:01:30;;;;;;;6.45;5.43;;;;;;;-142.25;100.00;58004.16;5071414;28;20484;-58
2021/09/04 06:03:56;;;;;;;6.63;4.32;;;;;;;-142.25;100.00;58004.16;5072396;28;20056;-56
2021/09/04 06:06:21;;;;;;;6.45;4.63;;;;;;;-142.25;100.00;58004.16;5072973;28;20111;-58
2021/09/04 06:08:47;;;;;;;6.07;4.55;;;;;;;-142.25;100.00;58004.16;5071843;28;20042;-58
2021/09/04 06:11:12;;;;;;;5.10;4.30;;;;;;;-142.25;100.00;58004.16;5072062;28;20020;-59
2021/09/04 06:13:38;;;;;;;5.15;4.40;;;;;;;-142.25;100.00;58004.16;5071705;28;20036;-57
2021/09/04 06:16:03;;;;;;;5.35;4.30;;;;;;;-142.25;100.00;58004.16;5072092;28;20033;-57
2021/09/04 06:18:29;;;;;;;5.15;4.53;;;;;;;-142.25;100.00;58004.16;5070993;28;20032;-57
2021/09/04 06:20:54;;;;;;;6.45;4.30;;;;;;;-142.25;100.00;58004.16;5072704;28;20020;-58
2021/09/04 06:23:19;;;;;;;5.63;4.63;;;;;;;-142.25;100.00;58004.16;5074225;28;20036;-55
2021/09/04 06:25:45;;;;;;;5.25;4.78;;;;;;;-142.25;100.00;58004.16;5076648;28;20025;-59
2021/09/04 06:28:10;;;;;;;6.22;4.53;;;;;;;-142.25;100.00;58004.16;5074447;28;20528;-57
2021/09/04 06:30:36;;;;;;;6.10;4.43;;;;;;;-142.25;100.00;58004.16;5076042;28;20036;-57
2021/09/04 06:33:01;;;;;;;5.75;4.55;;;;;;;-142.25;100.00;58004.16;5076567;28;20041;-59
2021/09/04 06:35:27;;;;;;;4.60;4.20;;;;;;;-142.25;100.00;58004.16;5076774;28;20036;-61
2021/09/04 06:37:52;;;;;;;5.47;4.97;;;;;;;-142.25;100.00;58004.16;5075211;28;20052;-57
2021/09/04 06:40:17;;;;;;;7.22;4.82;;;;;;;-142.25;100.00;58004.16;5061592;28;20041;-59
2021/09/04 06:42:43;;;;;;;4.97;4.57;;;;;;;-142.25;100.00;58004.16;5054291;28;20060;-59
2021/09/04 06:45:08;;;;;;;5.32;4.63;;;;;;;-142.25;100.00;58004.16;5056931;28;20028;-58
2021/09/04 06:47:34;;;;;;;7.25;4.68;;;;;;;-142.25;100.00;58004.16;5055623;28;20032;-56
2021/09/04 06:49:59;;;;;;;5.20;4.70;;;;;;;-142.25;100.00;58004.16;5055610;28;20131;-58
2021/09/04 06:52:25;;;;;;;5.50;5.00;;;;;;;-142.25;100.00;58004.16;5054705;28;20424;-58
2021/09/04 06:54:50;;;;;;;5.25;4.63;;;;;;;-142.25;100.00;58004.16;5057779;28;20045;-57
2021/09/04 06:57:15;;;;;;;4.82;4.43;;;;;;;-142.25;100.00;58004.16;5054611;28;20040;-54
2021/09/04 06:59:41;;;;;;;4.75;4.35;;;;;;;-142.25;100.00;58004.16;5056078;28;20037;-59
2021/09/04 07:02:06;;;;;;;4.78;4.35;;;;;;;-142.25;100.00;58004.16;5054179;28;20380;-59
2021/09/04 07:04:32;;;;;;;5.80;4.63;;;;;;;-142.25;100.00;58004.16;5054197;28;20068;-57
2021/09/04 07:07:02;;;;;;;5.57;4.93;;;;;;;-142.25;100.00;58004.16;5053061;28;20384;-53
2021/09/04 07:09:28;;;;;;;5.25;4.65;;;;;;;-142.25;100.00;58004.16;5056843;28;20135;-55
2021/09/04 07:11:53;;;;;;;4.88;4.45;;;;;;;-142.25;100.00;58004.16;5060065;28;20527;-61
2021/09/04 07:14:18;;;;;;;5.40;4.85;;;;;;;-142.25;100.00;58004.16;5061734;28;20578;-59
2021/09/04 07:16:44;;;;;;;5.88;5.32;;;;;;;-142.25;100.00;58004.16;5055867;28;20032;-59
2021/09/04 07:19:11;;;;;;;5.20;4.60;;;;;;;-142.25;100.00;58004.16;5056657;28;20494;-59
2021/09/04 07:21:36;;;;;;;5.53;4.75;;;;;;;-142.25;100.00;58004.16;5054168;28;20035;-59
2021/09/04 07:24:01;;;;;;;5.18;4.45;;;;;;;-142.25;100.00;58004.16;5055879;28;20397;-58
2021/09/04 07:26:27;;;;;;;5.40;4.90;;;;;;;-142.25;100.00;58004.16;5055753;28;20261;-58
2021/09/04 07:28:52;;;;;;;5.25;4.65;;;;;;;-142.25;100.00;58004.16;5056462;28;20099;-58
2021/09/04 07:31:18;;;;;;;5.57;4.82;;;;;;;-142.25;100.00;58004.16;5055360;28;20500;-57
2021/09/04 07:33:44;;;;;;;6.60;4.10;;;;;;;-142.25;100.00;58004.16;5055644;28;20105;-59
2021/09/04 07:36:10;;;;;;;10.38;7.38;;;;;;;-142.25;100.00;58004.16;5055184;28;20060;-59
2021/09/04 07:38:35;;;;;;;120.75;66.18;;;;;;;-142.25;100.00;58004.16;5054245;28;20076;-59
2021/09/04 07:41:01;;;;;;;10.05;6.40;;;;;;;-142.25;100.00;58004.16;5054478;28;20030;-58
2021/09/04 07:43:27;;;;;;;5.13;4.00;;;;;;;-142.25;100.00;58004.16;5055397;28;20622;-59
2021/09/04 07:45:52;;;;;;;5.32;4.00;;;;;;;-142.25;100.00;58004.16;5054785;28;20053;-57
2021/09/04 07:48:17;;;;;;;4.95;4.55;;;;;;;-142.25;100.00;58004.16;5054712;28;20551;-58
2021/09/04 07:50:43;;;;;;;6.45;4.93;;;;;;;-142.25;100.00;58004.16;5055647;28;20032;-57
2021/09/04 07:53:08;;;;;;;4.53;4.07;;;;;;;-142.25;100.00;58004.16;5053570;28;20028;-59
2021/09/04 07:55:34;;;;;;;8.02;4.55;;;;;;;-142.25;100.00;58004.16;5053480;28;20559;-57
2021/09/04 07:57:59;;;;;;;4.60;4.20;;;;;;;-142.25;100.00;58004.16;5069266;28;20572;-55
2021/09/04 08:00:26;;;;;;;9.00;4.55;;;;;;;-142.25;100.00;58004.16;5054472;28;20037;-59
2021/09/04 08:02:52;;;;;;;4.72;3.97;;;;;;;-142.25;100.00;58004.16;5053514;28;20088;-60
2021/09/04 08:05:17;;;;;;;6.80;4.32;;;;;;;-142.25;100.00;58004.16;5053093;28;20138;-58
2021/09/04 08:07:43;;;;;;;7.53;4.65;;;;;;;-142.25;100.00;58004.16;5055920;28;20037;-60
2021/09/04 08:10:09;;;;;;;4.18;3.83;;;;;;;-142.25;100.00;58004.16;5054905;28;20091;-57
2021/09/04 08:12:34;;;;;;;7.20;5.25;;;;;;;-142.25;100.00;58004.16;5054328;28;20060;-58
2021/09/04 08:15:00;;;;;;;4.90;4.43;;;;;;;-142.25;100.00;58004.16;5052524;28;20036;-60
2021/09/04 08:17:25;;;;;;;4.57;4.07;;;;;;;-142.25;100.00;58004.16;5056969;28;20037;-59
2021/09/04 08:19:50;;;;;;;9.27;4.22;;;;;;;-142.25;100.00;58004.16;5055638;28;20051;-59
2021/09/04 08:22:16;;;;;;;6.10;4.47;;;;;;;-142.25;100.00;58004.16;5052343;28;20029;-64
2021/09/04 08:24:41;;;;;;;7.15;4.00;;;;;;;-142.25;100.00;58004.16;5053993;28;20083;-58
2021/09/04 08:27:07;;;;;;;6.22;4.03;;;;;;;-142.25;100.00;58004.16;5054473;28;20091;-56
2021/09/04 08:29:32;;;;;;;6.53;3.85;;;;;;;-142.25;100.00;58004.16;5053766;28;20040;-59
2021/09/04 08:31:58;;;;;;;7.85;4.20;;;;;;;-142.25;100.00;58004.16;5051507;28;20036;-56
2021/09/04 08:34:23;;;;;;;6.90;3.97;;;;;;;-142.25;100.00;58004.16;5052145;28;20485;-60
2021/09/04 08:36:49;;;;;;;4.03;3.70;;;;;;;-142.25;100.00;58004.16;5051987;28;20528;-60
2021/09/04 08:39:14;;;;;;;5.90;4.60;;;;;;;-142.25;100.00;58004.16;5052770;28;20479;-63
2021/09/04 08:41:40;;;;;;;6.03;4.38;;;;;;;-142.25;100.00;58004.16;5053125;28;20037;-63
2021/09/04 08:44:06;;;;;;;7.03;4.28;;;;;;;-142.25;100.00;58004.16;5055111;28;20138;-66
2021/09/04 08:46:34;;;;;;;5.18;4.28;;;;;;;-142.25;100.00;58004.16;5053469;28;20359;-60
2021/09/04 08:49:01;;;;;;;6.47;4.32;;;;;;;-142.25;100.00;58004.16;5053016;28;20114;-60
2021/09/04 08:51:27;;;;;;;4.32;4.03;;;;;;;-142.25;100.00;58004.16;5053167;28;20473;-59
2021/09/04 08:53:52;;;;;;;4.13;3.78;;;;;;;-142.25;100.00;58004.16;5050743;28;20033;-59
2021/09/04 08:56:18;;;;;;;5.50;4.43;;;;;;;-142.25;100.00;58004.16;5050086;28;20229;-57
2021/09/04 08:58:43;;;;;;;4.35;3.72;;;;;;;-142.25;100.00;58004.16;5053476;28;20090;-56
2021/09/04 09:01:23;;;;;;;6.50;4.20;;;;;;;-142.25;100.00;58004.16;5053581;28;20025;-58
2021/09/04 09:03:49;;;;;;;4.55;4.00;;;;;;;-142.25;100.00;58004.16;5051965;28;20056;-56
2021/09/04 09:06:45;;;;;;;7.15;4.10;;;;;;;-142.25;100.00;58004.16;5055749;28;20063;-56
2021/09/04 09:09:13;;;;;;;4.82;4.35;;;;;;;-142.25;100.00;58004.16;5032577;28;20140;-55
2021/09/04 09:11:39;;;;;;;4.72;4.20;;;;;;;-142.25;100.00;58004.16;5053848;28;20041;-57
2021/09/04 09:14:04;;;;;;;4.85;4.05;;;;;;;-142.25;100.00;58004.16;5053754;28;20350;-60
2021/09/04 09:16:29;;;;;;;4.97;4.47;;;;;;;-142.25;100.00;58004.16;5053931;28;20516;-57
2021/09/04 09:19:04;;;;;;;4.70;4.30;;;;;;;-142.25;100.00;58004.16;5058499;28;20060;-56
2021/09/04 09:21:39;;;;;;;5.13;4.38;;;;;;;-142.25;100.00;58004.16;5052323;28;20469;-58
2021/09/04 09:24:14;;;;;;;6.22;4.07;;;;;;;-142.25;100.00;58004.16;5053064;28;20044;-56
2021/09/04 09:27:06;;;;;;;5.30;3.90;;;;;;;-142.25;100.00;58004.16;5053946;28;20068;-55
2021/09/04 09:29:33;;;;;;;4.63;3.80;;;;;;;-142.25;100.00;58004.16;5048863;28;20044;-57
2021/09/04 09:32:07;;;;;;;5.65;4.63;;;;;;;-142.25;100.00;58004.16;5053616;28;20459;-57
2021/09/04 09:34:38;;;;;;;5.43;4.93;;;;;;;-142.25;100.00;58004.16;5054979;28;20072;-58
2021/09/04 09:37:04;;;;;;;4.68;4.00;;;;;;;-142.25;100.00;58004.16;5053885;28;20406;-55
2021/09/04 09:39:32;;;;;;;4.35;3.88;;;;;;;-142.25;100.00;58004.16;5051858;28;20028;-58
2021/09/04 09:41:59;;;;;;;4.22;3.83;;;;;;;-142.25;100.00;58004.16;5052831;28;20119;-56
2021/09/04 09:44:30;;;;;;;5.28;4.78;;;;;;;-142.25;100.00;58004.16;5053187;28;20132;-56
2021/09/04 09:47:03;;;;;;;4.85;4.40;;;;;;;-142.25;100.00;58004.16;5053530;28;20412;-58
2021/09/04 09:49:31;;;;;;;4.90;4.50;;;;;;;-142.25;100.00;58004.16;5050306;28;20064;-56
2021/09/04 09:52:03;;;;;;;4.72;3.80;;;;;;;-142.25;100.00;58004.16;5052917;28;20057;-56
2021/09/04 09:54:31;;;;;;;4.78;3.92;;;;;;;-142.25;100.00;58004.16;5052041;28;20064;-58
2021/09/04 09:57:04;;;;;;;4.60;4.00;;;;;;;-142.25;100.00;58004.16;5049810;28;20032;-59
2021/09/04 09:59:30;;;;;;;6.00;4.15;;;;;;;-142.25;100.00;58004.16;5055986;28;20082;-58
2021/09/04 10:02:03;;;;;;;9.13;6.10;;;;;;;-142.25;100.00;58004.16;5056705;28;20739;-57
2021/09/04 10:04:32;;;;;;;5.75;4.22;;;;;;;-142.25;100.00;58004.16;5057920;28;20090;-57
2021/09/04 10:06:57;;;;;;;5.53;4.38;;;;;;;-142.25;100.00;58004.16;5057976;28;20154;-58
2021/09/04 10:09:26;;;;;;;4.47;4.07;;;;;;;-142.25;100.00;58004.16;5056805;28;20586;-59
2021/09/04 10:11:52;;;;;;;5.30;4.05;;;;;;;-142.25;100.00;58004.16;5059112;28;20107;-60
2021/09/04 10:14:19;;;;;;;5.38;4.45;;;;;;;-142.25;100.00;58004.16;5059873;28;20100;-57
2021/09/04 10:16:45;;;;;;;5.10;4.60;;;;;;;-142.25;100.00;58004.16;5056841;28;20033;-58
2021/09/04 10:19:15;;;;;;;5.45;4.00;;;;;;;-142.25;100.00;58004.16;5059582;28;20060;-56
2021/09/04 10:21:41;;;;;;;4.55;4.15;;;;;;;-142.25;100.00;58004.16;5059018;28;20423;-59
2021/09/04 10:24:07;;;;;;;5.13;4.40;;;;;;;-142.25;100.00;58004.16;5057561;28;20043;-56
2021/09/04 10:26:38;;;;;;;4.57;4.18;;;;;;;-142.25;100.00;58004.16;5073152;28;20036;-60
2021/09/04 10:29:14;;;;;;;4.93;4.43;;;;;;;-142.25;100.00;58004.16;5057889;28;20082;-60
2021/09/04 10:31:39;;;;;;;4.25;3.85;;;;;;;-142.25;100.00;58004.16;5057327;28;20111;-60
2021/09/04 10:34:14;;;;;;;5.25;4.63;;;;;;;-142.25;100.00;58004.16;5058833;28;20554;-58
2021/09/04 10:36:55;;;;;;;;;;;;;;;-142.25;100.00;58004.16;5058045;28;20036;-59
2021/09/04 10:39:22;;;;;;;4.80;4.40;;;;;;;-142.25;100.00;58004.16;5056949;28;20278;-58
2021/09/04 10:41:48;;;;;;;5.70;4.25;;;;;;;-142.25;100.00;58004.16;5058230;28;20090;-57
2021/09/04 10:44:14;;;;;;;5.68;4.40;;;;;;;-142.25;100.00;58004.16;5075032;28;20036;-57
2021/09/04 10:46:39;;;;;;;4.53;4.13;;;;;;;-142.25;100.00;58004.16;5058011;28;20051;-57
2021/09/04 10:49:06;;;;;;;5.05;4.45;;;;;;;-142.25;100.00;58004.16;5058694;28;20021;-65
2021/09/04 10:51:49;;;;;;;4.43;4.03;;;;;;;-142.25;100.00;58004.16;5058070;28;20039;-59
2021/09/04 10:54:56;;;;;;;4.07;3.78;;;;;;;-142.25;100.00;58004.16;5057567;28;20021;-58
2021/09/04 10:57:22;;;;;;;3.97;3.58;;;;;;;-142.25;100.00;58004.16;5057316;28;20032;-59
2021/09/04 10:59:57;;;;;;;4.82;4.32;;;;;;;-142.25;100.00;58004.16;5056920;28;20048;-59
2021/09/04 11:02:23;;;;;;;5.30;4.35;;;;;;;-142.25;100.00;58004.16;5058353;28;20052;-59
2021/09/04 11:04:57;;;;;;;4.80;4.38;;;;;;;-142.25;100.00;58004.16;5057966;28;20117;-63
2021/09/04 11:07:45;;;;;;;5.68;4.68;;;;;;;-142.25;100.00;58004.16;5057161;28;20028;-62